Time;durP1;ratioP1;P1;durP2;ratioP2;P2;SDS_P1;SDS_P2;PMS_P1;PMS_P2;Temp;Humidity;BMP_temperature;BMP_pressure;BME280_temperature;BME280_humidity;BME280_pressure;Samples;Min_cycle;Max_cycle;Signal;HPM_P1;HPM_P2
2023/05/06 00:00:16;;;;;;;8.10;2.85;;;7.30;99.90;;;5.89;72.38;101697.41;4987649;28;20036;-74
2023/05/06 00:02:42;;;;;;;7.03;2.35;;;7.30;99.90;;;5.86;72.29;101697.47;5005931;28;20038;-74
2023/05/06 00:05:08;;;;;;;8.07;2.80;;;7.40;99.90;;;5.97;72.40;101700.00;5006857;28;20038;-75
2023/05/06 00:07:34;;;;;;;8.60;2.90;;;7.30;99.90;;;5.84;72.41;101702.69;5003764;28;20041;-74
2023/05/06 00:10:00;;;;;;;11.43;2.05;;;7.20;99.90;;;5.69;72.20;101692.41;5005997;28;20078;-74
2023/05/06 00:12:26;;;;;;;8.77;2.63;;;7.20;99.90;;;5.79;72.62;101695.78;5005178;28;20042;-74
2023/05/06 00:14:52;;;;;;;5.47;2.17;;;7.20;99.90;;;5.74;72.86;101693.22;5006220;28;20038;-75
2023/05/06 00:17:18;;;;;;;8.68;2.58;;;7.20;99.90;;;5.76;72.44;101707.16;5006994;28;20494;-75
2023/05/06 00:19:44;;;;;;;6.25;1.90;;;7.20;99.90;;;5.66;72.24;101684.59;5005072;28;20056;-75
2023/05/06 00:22:10;;;;;;;4.82;2.28;;;7.20;99.90;;;5.64;72.39;101699.47;4988673;28;20495;-75
2023/05/06 00:24:36;;;;;;;4.80;2.00;;;7.20;99.90;;;5.63;72.29;101688.13;5007573;28;20232;-74
2023/05/06 00:27:01;;;;;;;11.23;3.83;;;7.20;99.90;;;5.66;72.92;101685.50;5005169;28;20080;-75
2023/05/06 00:29:27;;;;;;;3.38;1.65;;;7.10;99.90;;;5.53;72.52;101689.97;5005068;28;20043;-75
2023/05/06 00:31:53;;;;;;;10.55;2.65;;;7.10;99.90;;;5.64;72.51;101689.00;5022139;28;20033;-75
2023/05/06 00:34:19;;;;;;;13.65;3.60;;;7.20;99.90;;;5.71;72.40;101681.06;5004436;28;20044;-75
2023/05/06 00:36:45;;;;;;;6.70;2.28;;;7.20;99.90;;;5.71;72.55;101682.81;5005790;28;20167;-74
2023/05/06 00:39:10;;;;;;;8.15;2.53;;;7.20;99.90;;;5.67;72.02;101676.75;5009978;28;20116;-75
2023/05/06 00:41:36;;;;;;;9.98;2.70;;;7.20;99.90;;;5.69;72.35;101681.97;5011763;28;20498;-76
2023/05/06 00:44:02;;;;;;;11.70;2.40;;;7.20;99.90;;;5.67;72.31;101675.91;5012582;28;20064;-75
2023/05/06 00:46:28;;;;;;;9.95;2.50;;;7.20;99.90;;;5.73;72.60;101681.06;5010982;28;20116;-75
2023/05/06 00:48:54;;;;;;;9.20;2.88;;;7.20;99.90;;;5.81;72.05;101684.47;5010111;28;20379;-74
2023/05/06 00:51:20;;;;;;;6.75;2.55;;;7.30;99.90;;;5.84;72.30;101691.38;5012126;28;20044;-75
2023/05/06 00:53:46;;;;;;;7.13;2.80;;;7.20;99.90;;;5.79;72.87;101675.75;5010765;28;20033;-75
2023/05/06 00:56:12;;;;;;;3.38;1.83;;;7.20;99.90;;;5.63;72.40;101669.81;5010533;28;20033;-75
2023/05/06 00:58:38;;;;;;;10.10;3.05;;;7.20;99.90;;;5.65;73.29;101665.44;5000684;28;20029;-75
2023/05/06 01:01:04;;;;;;;7.50;1.90;;;7.20;99.90;;;5.66;73.38;101666.31;4994079;28;20029;-75
2023/05/06 01:03:30;;;;;;;10.63;3.35;;;7.20;99.90;;;5.66;73.04;101669.81;5010499;28;20026;-75
2023/05/06 01:06:39;;;;;;;10.77;3.42;;;7.20;99.90;;;5.68;73.14;101667.16;5008174;28;20037;-75
2023/05/06 01:09:23;;;;;;;6.40;2.88;;;7.20;99.90;;;5.73;73.79;101663.63;5023277;28;20522;-75
2023/05/06 01:12:06;;;;;;;10.27;2.58;;;7.10;99.90;;;5.54;73.42;101664.72;5010682;28;20037;-75
2023/05/06 01:14:35;;;;;;;5.28;2.55;;;7.10;99.90;;;5.67;73.19;101655.84;5008099;28;20044;-75
2023/05/06 01:17:05;;;;;;;8.70;2.40;;;7.10;99.90;;;5.60;72.95;101654.19;5012283;28;20113;-75
2023/05/06 01:19:40;;;;;;;7.65;2.17;;;7.10;99.90;;;5.59;73.18;101657.69;4993106;28;20040;-74
2023/05/06 01:22:08;;;;;;;8.82;2.30;;;7.10;99.90;;;5.60;72.88;101659.41;4989529;28;20175;-75
2023/05/06 01:24:42;;;;;;;8.98;2.63;;;7.10;99.90;;;5.65;72.83;101649.78;5009439;28;20055;-75
2023/05/06 01:27:10;;;;;;;6.63;2.20;;;7.10;99.90;;;5.57;72.38;101653.34;5010216;28;20053;-75
2023/05/06 01:29:40;;;;;;;8.85;2.72;;;7.10;99.90;;;5.65;72.32;101651.53;5010869;28;20033;-75
2023/05/06 01:32:09;;;;;;;10.48;2.88;;;7.10;99.90;;;5.64;72.86;101641.97;5009807;28;20124;-76
2023/05/06 01:35:14;;;;;;;10.93;2.50;;;7.10;99.90;;;5.63;72.62;101635.00;5010537;28;20068;-75
2023/05/06 01:38:04;;;;;;;9.43;3.03;;;7.10;99.90;;;5.58;72.81;101639.44;5010754;28;20045;-75
2023/05/06 01:40:32;;;;;;;8.98;2.25;;;7.10;99.90;;;5.54;72.89;101631.59;5010788;28;20052;-75
2023/05/06 01:43:01;;;;;;;12.85;3.20;;;7.00;99.90;;;5.42;72.77;101641.31;5009037;28;20045;-75
2023/05/06 01:45:30;;;;;;;6.47;2.55;;;7.00;99.90;;;5.48;73.42;101638.66;5010126;28;20149;-75
2023/05/06 01:47:56;;;;;;;10.30;2.78;;;7.10;99.90;;;5.52;74.24;101648.19;5007177;28;20030;-75
2023/05/06 01:50:22;;;;;;;10.90;2.72;;;7.00;99.90;;;5.47;74.67;101647.38;5009514;28;20029;-75
2023/05/06 01:52:59;;;;;;;8.30;2.55;;;7.00;99.90;;;5.34;75.23;101638.81;5009558;28;20038;-74
2023/05/06 01:55:25;;;;;;;4.20;1.95;;;6.90;99.90;;;5.26;75.85;101640.63;5008320;28;20511;-75
2023/05/06 01:57:53;;;;;;;10.90;2.90;;;6.80;99.90;;;5.27;76.78;101638.00;4992629;28;20037;-75
2023/05/06 02:00:19;;;;;;;8.43;2.90;;;6.80;99.90;;;5.31;76.98;101631.88;5011353;28;20050;-75
2023/05/06 02:02:46;;;;;;;8.18;2.80;;;6.80;99.90;;;5.34;76.45;101629.22;5009041;28;20034;-75
2023/05/06 02:05:12;;;;;;;10.13;2.75;;;6.80;99.90;;;5.30;76.64;101639.72;5010799;28;20545;-75
2023/05/06 02:07:37;;;;;;;9.40;3.58;;;6.80;99.90;;;5.18;76.85;101624.16;5008459;28;20107;-75
2023/05/06 02:10:04;;;;;;;7.85;2.97;;;6.80;99.90;;;5.28;76.93;101631.03;5008283;28;20038;-75
2023/05/06 02:12:29;;;;;;;13.63;2.80;;;6.80;99.90;;;5.32;76.45;101627.50;5009789;28;20534;-75
2023/05/06 02:14:55;;;;;;;8.55;2.85;;;6.80;99.90;;;5.38;76.81;101624.84;4994089;28;20124;-75
2023/05/06 02:17:21;;;;;;;6.18;2.33;;;6.80;99.90;;;5.33;76.22;101619.66;5008083;28;20104;-75
2023/05/06 02:19:47;;;;;;;8.15;2.80;;;6.80;99.90;;;5.32;76.50;101624.91;5009679;28;20037;-75
2023/05/06 02:22:13;;;;;;;6.80;2.83;;;6.80;99.90;;;5.35;76.28;101617.00;4994350;28;20104;-75
2023/05/06 02:24:38;;;;;;;7.97;2.65;;;6.80;99.90;;;5.36;76.32;101613.53;5008650;28;20045;-75
2023/05/06 02:27:05;;;;;;;8.18;2.70;;;6.90;99.90;;;5.33;76.22;101617.06;5008858;28;20128;-75
2023/05/06 02:29:30;;;;;;;7.28;2.70;;;6.80;99.90;;;5.26;76.14;101601.47;5010539;28;20116;-75
2023/05/06 02:31:56;;;;;;;8.90;2.80;;;6.80;99.90;;;5.32;76.54;101601.41;5012087;28;20125;-75
2023/05/06 02:34:22;;;;;;;6.38;1.85;;;6.80;99.90;;;5.20;76.59;101596.28;5014187;28;20160;-76
2023/05/06 02:36:48;;;;;;;8.23;3.03;;;6.80;99.90;;;5.26;77.65;101601.47;5028432;28;20037;-75
2023/05/06 02:39:14;;;;;;;11.70;2.92;;;6.80;99.90;;;5.31;77.37;101589.19;5015579;28;20489;-75
2023/05/06 02:41:40;;;;;;;4.80;2.28;;;6.80;99.90;;;5.15;78.01;101593.72;5014254;28;20528;-75
2023/05/06 02:44:05;;;;;;;8.82;3.17;;;6.80;99.90;;;5.30;77.87;101593.56;5014711;28;20049;-75
2023/05/06 02:46:32;;;;;;;2.97;1.73;;;6.80;99.90;;;5.10;78.13;101592.94;5015260;28;20517;-75
2023/05/06 02:48:59;;;;;;;5.25;1.48;;;6.70;99.90;;;5.08;78.46;101595.53;5013572;28;20037;-75
2023/05/06 02:51:24;;;;;;;11.20;3.05;;;6.70;99.90;;;5.22;78.98;101590.16;5014895;28;20051;-75
2023/05/06 02:53:50;;;;;;;7.43;2.85;;;6.70;99.90;;;5.14;78.82;101587.66;5013137;28;20033;-76
2023/05/06 02:56:16;;;;;;;5.75;2.40;;;6.70;99.90;;;5.12;79.01;101586.81;5013439;28;20029;-75
2023/05/06 02:58:42;;;;;;;5.47;2.78;;;6.60;99.90;;;5.09;78.79;101581.59;5015491;28;20429;-75
2023/05/06 03:01:08;;;;;;;11.63;3.17;;;6.60;99.90;;;5.12;79.17;101581.56;5015725;28;20129;-76
2023/05/06 03:03:33;;;;;;;7.78;2.60;;;6.60;99.90;;;5.10;79.70;101569.44;5014099;28;20029;-75
2023/05/06 03:05:59;;;;;;;10.07;2.80;;;6.60;99.90;;;5.05;79.71;101582.50;5028384;28;20021;-76
2023/05/06 03:08:25;;;;;;;5.90;2.90;;;6.60;99.90;;;5.10;80.00;101580.72;5013221;28;20053;-75
2023/05/06 03:10:51;;;;;;;10.70;3.28;;;6.60;99.90;;;5.11;79.86;101576.38;5011126;28;20109;-75
2023/05/06 03:13:17;;;;;;;7.65;2.58;;;6.60;99.90;;;5.05;80.09;101582.50;4995674;28;20036;-75
2023/05/06 03:15:43;;;;;;;11.43;3.47;;;6.60;99.90;;;5.13;80.28;101575.47;5013808;28;20108;-75
2023/05/06 03:18:08;;;;;;;10.65;2.92;;;6.70;99.90;;;5.16;80.49;101571.09;5012882;28;20092;-75
2023/05/06 03:20:34;;;;;;;5.40;2.85;;;6.70;99.90;;;5.18;80.68;101575.41;5010623;28;20491;-75
2023/05/06 03:23:00;;;;;;;7.90;2.80;;;6.60;99.90;;;5.10;81.06;101572.91;5012229;28;21104;-76
2023/05/06 03:25:26;;;;;;;6.80;2.75;;;6.60;99.90;;;5.10;81.32;101579.88;5014532;28;20256;-75
2023/05/06 03:27:52;;;;;;;8.40;3.10;;;6.60;99.90;;;5.18;82.02;101579.78;5012031;28;20120;-75
2023/05/06 03:30:18;;;;;;;5.25;2.30;;;6.60;99.90;;;5.14;81.50;101584.19;5014492;28;20113;-75
2023/05/06 03:32:44;;;;;;;9.00;2.85;;;6.60;99.90;;;5.05;81.99;101582.50;5014502;28;20037;-75
2023/05/06 03:35:10;;;;;;;9.05;3.25;;;6.60;99.90;;;5.06;81.93;101578.16;5028396;28;20510;-76
2023/05/06 03:37:36;;;;;;;8.65;2.97;;;6.60;99.90;;;5.08;82.79;101582.50;5012698;28;20033;-75
2023/05/06 03:40:03;;;;;;;9.18;3.20;;;6.60;99.90;;;5.12;82.43;101584.19;5013167;28;20521;-75
2023/05/06 03:42:29;;;;;;;10.82;4.25;;;6.60;99.90;;;5.12;82.46;101584.19;5012092;28;20041;-76
2023/05/06 03:44:55;;;;;;;11.57;3.47;;;6.60;99.90;;;5.21;82.39;101588.44;5011376;28;20092;-76
2023/05/06 03:47:21;;;;;;;11.13;3.35;;;6.70;99.90;;;5.24;82.20;101590.16;5018554;28;20030;-76
2023/05/06 03:49:47;;;;;;;7.00;3.15;;;6.70;99.90;;;5.26;81.87;101584.03;5012686;28;20116;-76
2023/05/06 03:52:13;;;;;;;6.70;2.95;;;6.70;99.90;;;5.23;82.27;101594.53;4996232;28;20065;-76
2023/05/06 03:54:39;;;;;;;6.28;3.03;;;6.70;99.90;;;5.26;82.33;101596.22;5012695;28;20036;-76
2023/05/06 03:57:04;;;;;;;10.73;3.53;;;6.70;99.90;;;5.30;82.54;101597.94;5013585;28;20039;-76
2023/05/06 03:59:30;;;;;;;6.28;3.10;;;6.70;99.90;;;5.25;81.94;101599.75;5016845;28;20112;-76
2023/05/06 04:01:56;;;;;;;5.95;3.40;;;6.70;99.90;;;5.23;81.95;101601.50;5030049;28;20041;-76
2023/05/06 04:04:22;;;;;;;9.07;3.72;;;6.70;99.90;;;5.24;82.13;101596.25;5012102;28;20044;-76
2023/05/06 04:06:48;;;;;;;6.38;2.30;;;6.70;99.90;;;5.22;82.50;101592.78;5012948;28;20049;-76
2023/05/06 04:09:13;;;;;;;8.20;3.45;;;6.70;99.90;;;5.32;82.36;101593.56;5010478;28;20402;-76
2023/05/06 04:11:40;;;;;;;8.90;3.28;;;6.70;99.90;;;5.27;82.71;101598.84;5011531;28;20061;-76
2023/05/06 04:14:06;;;;;;;13.90;3.75;;;6.80;99.90;;;5.38;82.82;101600.44;5011978;28;20062;-77
2023/05/06 04:16:32;;;;;;;11.45;3.78;;;6.80;99.90;;;5.28;83.39;101600.56;5010266;28;20126;-77
2023/05/06 04:18:57;;;;;;;8.85;3.03;;;6.80;99.90;;;5.28;83.09;101595.31;5014042;28;20052;-77
2023/05/06 04:21:23;;;;;;;9.73;3.67;;;6.80;99.90;;;5.31;83.31;101602.25;5011051;28;20125;-76
2023/05/06 04:23:49;;;;;;;5.18;2.05;;;6.80;99.90;;;5.24;83.54;101606.69;4994890;28;20457;-77
2023/05/06 04:26:15;;;;;;;7.88;3.50;;;6.80;99.90;;;5.42;83.58;101599.53;5012419;28;20022;-77
2023/05/06 04:28:40;;;;;;;9.15;3.20;;;6.80;99.90;;;5.39;83.74;101604.81;5011467;28;20046;-77
2023/05/06 04:31:07;;;;;;;7.07;2.97;;;6.80;99.90;;;5.22;83.79;101595.38;5014678;28;20109;-77
2023/05/06 04:33:33;;;;;;;8.93;3.72;;;6.80;99.90;;;5.35;84.03;101596.13;5028364;28;20044;-77
2023/05/06 04:35:59;;;;;;;14.25;3.72;;;6.80;99.90;;;5.31;84.59;101613.59;5012867;28;20156;-77
2023/05/06 04:38:29;;;;;;;10.32;3.53;;;6.70;99.90;;;5.24;84.92;101608.44;5014169;28;20042;-77
2023/05/06 04:40:55;;;;;;;4.50;2.63;;;6.80;99.90;;;5.24;85.03;101604.06;5012278;28;20072;-77
2023/05/06 04:43:21;;;;;;;7.25;3.80;;;6.80;99.90;;;5.37;85.50;101603.94;4994525;28;20034;-77
2023/05/06 04:45:49;;;;;;;13.35;3.72;;;6.80;99.90;;;5.37;85.16;101603.94;5010651;28;20567;-77
2023/05/06 04:48:22;;;;;;;10.50;4.13;;;6.80;99.90;;;5.38;85.51;101605.66;5012195;28;20053;-77
2023/05/06 04:50:49;;;;;;;7.50;2.80;;;6.80;99.90;;;5.41;85.61;101600.44;5011197;28;20617;-77
2023/05/06 04:53:16;;;;;;;12.82;3.53;;;6.80;99.90;;;5.27;84.96;101596.22;5013265;28;20044;-77
2023/05/06 04:55:42;;;;;;;9.55;2.95;;;6.80;99.90;;;5.34;85.12;101604.84;5011832;28;20040;-77
2023/05/06 04:58:08;;;;;;;5.22;2.70;;;6.90;99.90;;;5.33;85.36;101608.34;5010911;28;20391;-77
2023/05/06 05:00:34;;;;;;;9.88;3.20;;;6.80;99.90;;;5.46;85.58;101611.69;5012014;28;20092;-77
2023/05/06 05:03:02;;;;;;;11.07;4.07;;;6.90;99.90;;;5.54;85.34;101618.53;4979027;28;20603;-76
2023/05/06 05:05:31;;;;;;;5.95;3.33;;;6.90;99.90;;;5.49;85.03;101617.75;5011280;28;20045;-77
2023/05/06 05:07:57;;;;;;;8.18;3.33;;;7.00;99.90;;;5.43;85.00;101614.34;5009826;28;20030;-77
2023/05/06 05:10:23;;;;;;;9.68;3.45;;;7.00;99.90;;;5.55;85.17;101619.44;5011820;28;20208;-77
2023/05/06 05:12:48;;;;;;;11.48;3.67;;;7.00;99.90;;;5.66;85.15;101622.78;4990845;28;20052;-76
2023/05/06 05:15:14;;;;;;;9.38;3.42;;;7.10;99.90;;;5.62;84.84;101628.06;5012099;28;20024;-77
2023/05/06 05:17:40;;;;;;;8.73;3.70;;;7.10;99.90;;;5.71;84.74;101622.72;5026016;28;20117;-76
2023/05/06 05:20:07;;;;;;;10.55;3.92;;;7.10;99.90;;;5.76;84.36;101632.22;5009370;28;20038;-76
2023/05/06 05:22:33;;;;;;;12.57;3.72;;;7.20;99.90;;;5.80;83.96;101635.66;5009667;28;20049;-76
2023/05/06 05:24:59;;;;;;;8.10;3.35;;;7.20;99.90;;;5.75;83.77;101635.72;5012342;28;20486;-77
2023/05/06 05:27:24;;;;;;;9.20;3.45;;;7.20;99.90;;;5.79;84.11;101643.50;5012195;28;20034;-77
2023/05/06 05:29:50;;;;;;;11.38;3.65;;;7.20;99.90;;;5.82;84.47;101636.50;5008401;28;20103;-76
2023/05/06 05:32:16;;;;;;;8.73;3.40;;;7.20;99.90;;;5.86;83.90;101638.22;5010442;28;20029;-76
2023/05/06 05:34:42;;;;;;;14.88;3.65;;;7.30;99.90;;;5.90;84.40;101637.28;5010159;28;20121;-76
2023/05/06 05:37:09;;;;;;;8.95;3.72;;;7.30;99.90;;;5.91;84.26;101638.16;5011526;28;20038;-76
2023/05/06 05:39:34;;;;;;;7.78;3.67;;;7.30;99.90;;;5.98;84.56;101638.97;4993196;28;20099;-76
2023/05/06 05:42:01;;;;;;;10.52;3.75;;;7.40;99.90;;;6.01;84.36;101638.94;5010765;28;20029;-76
2023/05/06 05:44:26;;;;;;;10.95;3.65;;;7.40;99.90;;;6.00;84.41;101639.81;5004442;28;20044;-76
2023/05/06 05:46:52;;;;;;;9.13;3.38;;;7.40;99.90;;;6.00;84.48;101639.81;5011613;28;20029;-76
2023/05/06 05:49:18;;;;;;;9.02;3.22;;;7.40;99.90;;;5.92;84.43;101634.66;5025363;28;20047;-77
2023/05/06 05:51:44;;;;;;;9.82;3.72;;;7.40;99.90;;;6.01;84.65;101639.78;5010706;28;20529;-77
2023/05/06 05:54:09;;;;;;;13.55;4.20;;;7.40;99.90;;;5.94;84.84;101636.41;4993213;28;20113;-77
2023/05/06 05:56:35;;;;;;;14.63;4.13;;;7.40;99.90;;;6.00;85.00;101634.56;5009565;28;20120;-76
2023/05/06 05:59:01;;;;;;;6.85;3.30;;;7.40;99.90;;;6.04;84.77;101634.50;5014095;28;20048;-77
2023/05/06 06:01:27;;;;;;;6.80;3.50;;;7.40;99.90;;;5.94;84.68;101641.63;5010011;28;20089;-76
2023/05/06 06:03:54;;;;;;;10.75;3.53;;;7.40;99.90;;;5.98;84.98;101644.19;5010414;28;20050;-77
2023/05/06 06:06:20;;;;;;;7.53;3.58;;;7.40;99.90;;;6.01;85.20;101638.94;5017436;28;20033;-77
2023/05/06 06:08:46;;;;;;;10.77;4.03;;;7.30;99.90;;;5.87;85.45;101636.44;5020008;28;20092;-77
2023/05/06 06:11:11;;;;;;;7.78;3.38;;;7.30;99.90;;;5.92;85.86;101632.06;5019194;28;20036;-77
2023/05/06 06:13:37;;;;;;;10.77;3.88;;;7.40;99.90;;;6.01;85.93;101631.09;5021116;28;20059;-78
2023/05/06 06:16:04;;;;;;;10.23;4.00;;;7.40;99.90;;;6.14;85.54;101635.28;5003500;28;20508;-77
2023/05/06 06:18:30;;;;;;;8.85;4.10;;;7.50;99.90;;;6.12;85.61;101630.06;5018690;28;20053;-78
2023/05/06 06:20:55;;;;;;;12.73;3.55;;;7.50;99.90;;;6.05;85.64;101635.41;5024325;28;20029;-77
2023/05/06 06:23:22;;;;;;;12.13;3.45;;;7.50;99.90;;;6.11;86.23;101633.56;5007378;28;20122;-78
2023/05/06 06:25:48;;;;;;;9.15;3.95;;;7.50;99.90;;;6.09;85.99;101637.94;5022915;28;20037;-77
2023/05/06 06:28:14;;;;;;;7.53;3.95;;;7.60;99.90;;;6.21;86.02;101634.28;5027937;28;20037;-77
2023/05/06 06:30:40;;;;;;;10.13;3.95;;;7.60;99.90;;;6.27;85.89;101634.22;5022174;28;20033;-77
2023/05/06 06:33:06;;;;;;;8.10;4.00;;;7.60;99.90;;;6.25;86.36;101638.59;5023306;28;20044;-77
2023/05/06 06:35:32;;;;;;;11.02;3.92;;;7.60;99.90;;;6.18;86.69;101636.06;5004282;28;20045;-77
2023/05/06 06:37:58;;;;;;;11.57;3.88;;;7.60;99.90;;;6.22;86.95;101646.50;5022494;28;20509;-77
2023/05/06 06:40:24;;;;;;;12.50;4.05;;;7.60;99.90;;;6.22;87.36;101638.66;5002820;28;20109;-77
2023/05/06 06:42:50;;;;;;;14.52;3.97;;;7.60;99.90;;;6.22;87.77;101646.50;5021030;28;20038;-77
2023/05/06 06:45:16;;;;;;;12.18;4.55;;;7.70;99.90;;;6.34;87.94;101648.91;5015822;28;20101;-77
2023/05/06 06:47:42;;;;;;;13.30;4.40;;;7.70;99.90;;;6.40;88.08;101649.75;5010042;28;20073;-77
2023/05/06 06:50:10;;;;;;;8.20;4.20;;;7.80;99.90;;;6.43;87.51;101662.75;5023429;28;20124;-77
2023/05/06 06:52:36;;;;;;;11.10;4.55;;;7.80;99.90;;;6.57;87.11;101655.59;5036272;28;20037;-77
2023/05/06 06:55:02;;;;;;;11.05;4.55;;;7.80;99.90;;;6.51;87.12;101667.00;5020729;28;20091;-77
2023/05/06 06:57:28;;;;;;;15.98;4.20;;;7.90;99.90;;;6.58;86.76;101668.63;5020796;28;20044;-77
2023/05/06 06:59:54;;;;;;;11.98;4.60;;;7.90;99.90;;;6.51;86.25;101674.84;5022505;28;20068;-77
2023/05/06 07:02:21;;;;;;;10.27;4.70;;;7.90;99.90;;;6.66;86.06;101672.91;5020656;28;20046;-77
2023/05/06 07:04:47;;;;;;;9.07;4.25;;;8.00;99.90;;;6.65;85.94;101684.22;5001983;28;20045;-77
2023/05/06 07:07:13;;;;;;;8.85;4.30;;;7.90;99.90;;;6.57;85.87;101685.22;5018017;28;20037;-76
2023/05/06 07:09:39;;;;;;;10.35;3.80;;;8.00;99.90;;;6.72;86.29;101683.28;5019462;28;20041;-77
2023/05/06 07:12:06;;;;;;;9.00;4.63;;;8.00;99.90;;;6.70;86.23;101683.28;5017395;28;20103;-76
2023/05/06 07:14:33;;;;;;;10.75;4.20;;;8.00;99.90;;;6.68;86.36;101679.84;5016177;28;20038;-77
2023/05/06 07:17:02;;;;;;;14.32;4.03;;;8.00;99.90;;;6.61;86.27;101683.44;5019095;28;20048;-77
2023/05/06 07:19:30;;;;;;;8.32;4.80;;;8.00;99.90;;;6.68;86.38;101687.69;5013245;28;20091;-77
2023/05/06 07:21:56;;;;;;;8.23;4.60;;;8.10;99.90;;;6.69;86.35;101681.53;5015359;28;20029;-77
2023/05/06 07:24:22;;;;;;;8.18;4.18;;;8.10;99.90;;;6.70;86.65;101682.44;5013333;28;20045;-77
2023/05/06 07:26:48;;;;;;;9.27;4.32;;;8.10;99.90;;;6.66;86.96;101680.75;5002755;28;20145;-77
2023/05/06 07:29:14;;;;;;;9.48;4.43;;;8.10;99.90;;;6.64;87.09;101688.63;5013011;28;20113;-77
2023/05/06 07:31:40;;;;;;;14.23;4.80;;;8.00;99.90;;;6.66;87.86;101686.84;5009059;28;20041;-77
2023/05/06 07:34:06;;;;;;;9.88;4.75;;;8.10;99.90;;;6.74;87.78;101695.44;5009697;28;20045;-80
2023/05/06 07:36:44;;;;;;;9.48;4.65;;;8.10;99.90;;;6.61;88.05;101693.00;4978716;28;20049;-79
2023/05/06 07:39:11;;;;;;;7.70;4.07;;;8.10;99.90;;;6.71;89.27;101700.72;5003519;28;20046;-80
2023/05/06 07:41:41;;;;;;;10.15;5.22;;;8.10;99.90;;;6.83;89.59;101699.69;4960904;28;20389;-80
2023/05/06 07:44:07;;;;;;;14.63;4.75;;;8.20;99.90;;;6.91;89.41;101699.53;4965032;28;20038;-80
2023/05/06 07:46:33;;;;;;;12.13;4.85;;;8.10;99.90;;;6.74;90.09;101703.31;4952848;28;20061;-79
2023/05/06 07:48:59;;;;;;;9.40;4.68;;;8.20;99.90;;;6.84;90.20;101701.38;4941469;28;20045;-80
2023/05/06 07:51:25;;;;;;;11.00;3.67;;;8.20;99.90;;;6.70;91.25;101698.13;4937693;28;20071;-79
2023/05/06 07:53:54;;;;;;;14.80;5.25;;;8.20;99.90;;;7.02;91.42;101708.13;4946685;28;20099;-79
2023/05/06 07:56:20;;;;;;;10.75;4.30;;;8.30;99.90;;;6.90;91.86;101710.91;4931695;28;20502;-80
2023/05/06 07:58:48;;;;;;;11.32;5.55;;;8.30;99.90;;;7.14;92.32;101709.66;4948360;28;20042;-80
2023/05/06 08:01:15;;;;;;;10.68;4.75;;;8.40;99.90;;;7.27;91.79;101710.31;4948854;28;20026;-80
2023/05/06 08:03:40;;;;;;;13.35;5.45;;;8.50;99.90;;;7.29;91.43;101711.16;4961460;28;20091;-80
2023/05/06 08:06:07;;;;;;;11.90;4.72;;;8.60;99.90;;;7.46;91.46;101711.72;4976906;28;20034;-80
2023/05/06 08:08:33;;;;;;;11.95;5.57;;;8.70;99.90;;;7.49;90.82;101708.16;5045147;22;20399;-77
2023/05/06 08:11:01;;;;;;;11.50;5.50;;;8.70;99.90;;;7.50;90.95;101697.66;4971143;28;20030;-77
2023/05/06 08:13:27;;;;;;;13.20;5.63;;;8.80;99.90;;;7.63;91.88;101705.31;4974336;28;20043;-77
2023/05/06 08:15:53;;;;;;;11.32;5.97;;;8.90;99.90;;;7.85;91.75;101703.13;4976285;28;21006;-77
2023/05/06 08:18:19;;;;;;;9.82;5.60;;;9.10;99.90;;;7.95;91.60;101708.16;4998847;28;20127;-75
2023/05/06 08:20:44;;;;;;;9.68;5.78;;;9.20;99.90;;;8.01;90.95;101705.44;4993803;28;20034;-77
2023/05/06 08:23:10;;;;;;;8.38;5.32;;;9.20;99.90;;;8.12;89.73;101704.31;4998457;28;20033;-77
2023/05/06 08:25:39;;;;;;;9.25;5.20;;;9.30;99.90;;;8.16;89.23;101714.75;5026978;28;20456;-76
2023/05/06 08:28:05;;;;;;;9.68;5.70;;;9.30;99.90;;;7.99;88.68;101707.22;5020215;28;20049;-76
2023/05/06 08:30:31;;;;;;;11.30;4.90;;;9.30;99.90;;;7.98;88.76;101708.09;4999467;28;20040;-77
2023/05/06 08:32:57;;;;;;;16.35;5.80;;;9.30;99.90;;;8.05;89.04;101711.47;4997081;28;20120;-76
2023/05/06 08:35:23;;;;;;;10.57;5.75;;;9.30;99.90;;;8.05;88.76;101711.47;5007905;28;20114;-75
2023/05/06 08:37:49;;;;;;;10.32;5.55;;;9.30;99.90;;;8.14;89.62;101718.28;5011907;28;20029;-76
2023/05/06 08:40:22;;;;;;;8.80;4.93;;;9.20;99.90;;;7.80;89.60;101717.19;5016556;28;20043;-76
2023/05/06 08:42:49;;;;;;;8.05;4.97;;;9.20;99.90;;;7.83;90.15;101723.28;4996257;28;22200;-76
2023/05/06 08:45:19;;;;;;;8.63;3.67;;;9.00;99.90;;;7.36;90.13;101724.13;5006047;28;20053;-76
2023/05/06 08:47:50;;;;;;;10.13;5.32;;;8.90;99.90;;;7.45;90.61;101736.22;4993530;28;20041;-76
2023/05/06 08:50:16;;;;;;;5.88;3.10;;;8.90;99.90;;;7.39;91.33;101725.84;5005850;28;20045;-77
2023/05/06 08:52:42;;;;;;;12.05;5.35;;;8.90;99.90;;;7.55;91.32;101740.38;4996795;28;20056;-77
2023/05/06 08:55:08;;;;;;;11.65;5.80;;;8.80;99.90;;;7.48;91.68;101746.63;5012552;28;20033;-76
2023/05/06 08:57:38;;;;;;;16.77;6.10;;;8.90;99.90;;;7.66;91.90;101734.06;5003061;28;20064;-76
2023/05/06 09:00:09;;;;;;;10.68;6.05;;;8.90;99.90;;;7.74;92.32;101740.91;4984551;28;20034;-76
2023/05/06 09:02:40;;;;;;;11.10;5.72;;;9.00;99.90;;;7.75;92.91;101741.75;4997440;28;20037;-76
2023/05/06 09:05:10;;;;;;;10.88;6.20;;;9.00;99.90;;;7.83;92.85;101754.75;5013109;28;20387;-76
2023/05/06 09:07:36;;;;;;;12.23;6.38;;;9.00;99.90;;;7.79;93.14;101744.28;5014201;28;20030;-76
2023/05/06 09:10:13;;;;;;;9.30;5.53;;;9.10;99.90;;;7.98;92.78;101754.44;4996679;28;20038;-77
2023/05/06 09:12:39;;;;;;;12.93;5.60;;;9.20;99.90;;;7.91;92.58;101748.47;5012542;28;20049;-76
2023/05/06 09:15:07;;;;;;;10.02;4.20;;;9.20;99.90;;;7.69;91.82;101763.72;5005529;28;20271;-76
2023/05/06 09:17:36;;;;;;;10.48;5.30;;;9.10;99.90;;;7.71;91.64;101761.06;5013297;28;20072;-77
2023/05/06 09:20:05;;;;;;;13.65;5.07;;;9.10;99.90;;;7.77;91.78;101761.81;4991738;28;20049;-77
2023/05/06 09:22:38;;;;;;;7.53;4.43;;;9.10;99.90;;;7.67;91.51;101762.91;4994556;28;20034;-77
2023/05/06 09:25:10;;;;;;;12.18;5.53;;;9.10;99.90;;;7.70;91.12;101756.72;5006067;28;20575;-76
2023/05/06 09:27:36;;;;;;;11.65;5.55;;;9.10;99.90;;;7.80;90.82;101753.06;4999848;28;20041;-76
2023/05/06 09:30:05;;;;;;;13.40;5.40;;;9.10;99.90;;;7.71;90.27;101756.72;5009309;28;20072;-76
2023/05/06 09:32:37;;;;;;;8.27;5.05;;;9.10;99.90;;;7.79;90.07;101762.66;5000531;28;20040;-76
2023/05/06 09:35:04;;;;;;;10.80;4.70;;;9.10;99.90;;;7.72;90.00;101758.41;5004054;28;20041;-77
2023/05/06 09:37:32;;;;;;;10.85;4.70;;;9.10;99.90;;;7.79;90.38;101757.41;5019283;28;20064;-76
2023/05/06 09:40:06;;;;;;;15.75;5.38;;;9.20;99.90;;;8.02;90.57;101766.63;5004997;28;20041;-77
2023/05/06 09:42:33;;;;;;;9.80;4.30;;;9.30;99.90;;;8.01;90.26;101764.88;4987900;28;20054;-78
2023/05/06 09:45:03;;;;;;;15.73;5.20;;;9.30;99.90;;;8.09;89.93;101764.72;5020340;28;20046;-78
2023/05/06 09:47:55;;;;;;;12.43;5.30;;;9.30;99.90;;;7.97;90.24;101769.34;4982835;28;20051;-78
2023/05/06 09:50:22;;;;;;;11.18;5.10;;;9.40;99.90;;;8.07;90.74;101777.00;4960004;28;20547;-78
2023/05/06 09:52:55;;;;;;;13.15;5.50;;;9.30;99.90;;;8.10;90.79;101766.44;4980912;28;20037;-77
2023/05/06 09:55:26;;;;;;;13.00;4.68;;;9.40;99.90;;;8.01;90.42;101763.13;4990877;28;20033;-78
2023/05/06 09:57:53;;;;;;;8.48;3.75;;;9.40;99.90;;;7.96;91.08;101751.84;5015209;28;20100;-78
2023/05/06 10:00:26;;;;;;;11.95;6.07;;;9.20;99.90;;;7.88;91.42;101764.22;5021242;28;20033;-78
2023/05/06 10:02:59;;;;;;;8.23;3.47;;;9.30;99.90;;;7.86;91.40;101752.06;5005477;28;20589;-78
2023/05/06 10:05:27;;;;;;;9.48;5.05;;;9.10;99.90;;;7.67;92.04;101751.56;5019889;28;20050;-78
2023/05/06 10:07:56;;;;;;;10.68;5.40;;;9.10;99.90;;;7.71;92.35;101756.72;5013729;22;20045;-79
2023/05/06 10:10:23;;;;;;;11.05;5.50;;;9.10;99.90;;;7.79;93.06;101760.03;4989774;28;20046;-78
2023/05/06 10:13:03;;;;;;;9.23;5.25;;;9.20;99.90;;;7.98;93.20;101752.69;4949847;28;20037;-78
2023/05/06 10:15:41;;;;;;;10.57;5.35;;;9.20;99.90;;;7.93;92.57;101754.53;4977544;28;20033;-77
2023/05/06 10:18:19;;;;;;;11.60;5.72;;;;;;;8.08;92.88;101757.75;4983025;28;20031;-78
2023/05/06 10:20:47;;;;;;;9.40;3.95;;;9.20;99.90;;;7.77;93.25;101751.31;4965705;28;20042;-78
2023/05/06 10:23:47;;;;;;;12.55;5.40;;;9.30;99.90;;;8.02;93.03;101750.88;5004981;28;20064;-77